Time;durP1;ratioP1;P1;durP2;ratioP2;P2;SDS_P1;SDS_P2;PMS_P1;PMS_P2;Temp;Humidity;BMP_temperature;BMP_pressure;BME280_temperature;BME280_humidity;BME280_pressure;Samples;Min_cycle;Max_cycle;Signal;HPM_P1;HPM_P2
2023/04/15 00:01:19;;;;;;;9.68;4.47;;;333.30;2176.00;;;;;;5056641;28;20025;-84
2023/04/15 00:03:46;;;;;;;4.90;2.00;;;333.20;2201.60;;;;;;5056480;28;20120;-84
2023/04/15 00:06:12;;;;;;;4.57;1.92;;;333.20;2227.20;;;;;;5056428;28;20036;-84
2023/04/15 00:08:38;;;;;;;4.10;2.00;;;333.10;2227.20;;;;;;5056254;28;20028;-87
2023/04/15 00:11:04;;;;;;;5.80;2.50;;;333.10;2227.20;;;;;;5055995;28;20024;-84
2023/04/15 00:13:33;;;;;;;2.78;1.38;;;333.60;2227.20;;;;;;5040827;28;20059;-84
2023/04/15 00:16:00;;;;;;;4.25;1.70;;;333.10;2227.20;;;;;;5036316;28;20119;-83
2023/04/15 00:18:26;;;;;;;4.97;2.88;;;333.10;2227.20;;;;;;5037306;28;20035;-85
2023/04/15 00:20:52;;;;;;;2.17;1.10;;;333.00;2252.80;;;;;;5043142;28;20029;-86
2023/04/15 00:23:18;;;;;;;2.63;1.23;;;332.90;2252.80;;;;;;5042852;28;20024;-82
2023/04/15 00:25:44;;;;;;;4.82;1.73;;;332.90;2252.80;;;;;;5035979;28;20021;-85
2023/04/15 00:28:10;;;;;;;3.28;1.50;;;332.90;2252.80;;;;;;5036075;28;20033;-82
2023/04/15 00:30:36;;;;;;;2.55;1.60;;;332.90;2252.80;;;;;;5053612;28;20021;-85
2023/04/15 00:33:02;;;;;;;5.38;1.77;;;332.90;2252.80;;;;;;5035654;28;20033;-86
2023/04/15 00:35:28;;;;;;;4.20;2.10;;;332.90;2252.80;;;;;;5036170;28;20064;-81
2023/04/15 00:37:54;;;;;;;4.05;1.55;;;332.90;2278.40;;;;;;5053989;28;20132;-82
2023/04/15 00:40:23;;;;;;;4.47;1.38;;;332.90;2278.40;;;;;;5035545;28;20112;-83
2023/04/15 00:42:49;;;;;;;2.35;1.10;;;332.90;2252.80;;;;;;5052727;28;20424;-84
2023/04/15 00:45:15;;;;;;;3.40;1.27;;;308.00;2227.20;;;;;;5035899;28;20076;-90
2023/04/15 00:47:43;;;;;;;5.43;1.50;;;308.10;2252.80;;;;;;5035571;28;20025;-84
2023/04/15 00:50:09;;;;;;;4.30;1.52;;;308.00;2252.80;;;;;;5036081;28;20418;-85
2023/04/15 00:52:36;;;;;;;4.07;1.83;;;308.10;2252.80;;;;;;5053586;28;20036;-84
2023/04/15 00:55:03;;;;;;;6.18;2.00;;;307.90;2252.80;;;;;;5053176;28;20118;-82
2023/04/15 00:57:29;;;;;;;9.80;3.67;;;307.90;2278.40;;;;;;5035158;28;20473;-83
2023/04/15 00:59:56;;;;;;;5.50;2.33;;;307.90;2278.40;;;;;;5034823;28;20055;-84
2023/04/15 01:02:22;;;;;;;10.20;3.15;;;307.90;2278.40;;;;;;5052876;28;20061;-84
2023/04/15 01:04:49;;;;;;;9.73;4.72;;;307.80;2278.40;;;;;;5035741;28;20036;-85
2023/04/15 01:07:15;;;;;;;8.38;3.70;;;307.80;2278.40;;;;;;5053083;28;20022;-84
2023/04/15 01:09:41;;;;;;;5.57;1.73;;;308.00;2252.80;;;;;;5036390;28;20025;-84
2023/04/15 01:12:09;;;;;;;5.03;2.22;;;308.10;2252.80;;;;;;5056329;28;20026;-85
2023/04/15 01:14:38;;;;;;;8.55;2.90;;;308.00;2252.80;;;;;;5036087;28;20033;-86
2023/04/15 01:17:04;;;;;;;6.00;2.60;;;308.10;2252.80;;;;;;5035446;28;20032;-84
2023/04/15 01:19:30;;;;;;;5.28;2.67;;;308.10;2278.40;;;;;;5035501;28;20028;-85
2023/04/15 01:21:56;;;;;;;5.68;2.95;;;308.10;2278.40;;;;;;5035335;28;20099;-85
2023/04/15 01:24:22;;;;;;;8.10;3.80;;;308.10;2278.40;;;;;;5035728;28;20025;-84
2023/04/15 01:26:49;;;;;;;7.80;3.45;;;308.00;2252.80;;;;;;5053233;28;20029;-84
2023/04/15 01:29:15;;;;;;;6.85;4.00;;;308.00;2278.40;;;;;;5035376;28;20511;-82
2023/04/15 01:31:49;;;;;;;7.60;4.10;;;308.10;2278.40;;;;;;5053706;28;20032;-81
2023/04/15 01:34:15;;;;;;;5.43;3.17;;;308.10;2278.40;;;;;;5035472;28;20473;-81
2023/04/15 01:36:41;;;;;;;4.85;2.55;;;308.00;2278.40;;;;;;5035227;28;20124;-84
2023/04/15 01:39:07;;;;;;;6.82;3.53;;;307.90;2278.40;;;;;;5035202;28;20405;-82
2023/04/15 01:41:33;;;;;;;9.68;5.00;;;307.80;2304.00;;;;;;5054314;28;20029;-81
2023/04/15 01:43:59;;;;;;;10.80;5.47;;;307.70;2304.00;;;;;;5056616;28;20123;-82
2023/04/15 01:46:25;;;;;;;9.43;5.35;;;307.70;2304.00;;;;;;5039171;28;20021;-83
2023/04/15 01:48:51;;;;;;;5.53;2.65;;;307.60;2304.00;;;;;;5038620;28;20029;-82
2023/04/15 01:51:16;;;;;;;5.07;1.85;;;307.70;2304.00;;;;;;5056657;28;20021;-80
2023/04/15 01:53:42;;;;;;;18.55;8.65;;;307.60;2304.00;;;;;;5056548;28;20035;-82
2023/04/15 01:56:09;;;;;;;14.55;7.13;;;307.80;2304.00;;;;;;5056083;28;20740;-84
2023/04/15 01:58:34;;;;;;;15.85;7.00;;;307.80;2278.40;;;;;;5038641;28;20028;-83
2023/04/15 02:01:01;;;;;;;10.93;5.65;;;307.80;2304.00;;;;;;5038674;28;20052;-82
2023/04/15 02:03:28;;;;;;;12.18;5.65;;;307.60;2304.00;;;;;;5038334;28;20035;-83
2023/04/15 02:05:54;;;;;;;10.05;4.90;;;307.70;2304.00;;;;;;5057021;28;20104;-88
2023/04/15 02:08:20;;;;;;;8.88;4.47;;;307.80;2304.00;;;;;;5039013;28;20082;-83
2023/04/15 02:10:46;;;;;;;14.63;7.50;;;307.80;2304.00;;;;;;5056451;28;20055;-84
2023/04/15 02:13:12;;;;;;;12.70;7.22;;;307.80;2278.40;;;;;;5038255;28;20033;-82
2023/04/15 02:15:38;;;;;;;12.30;6.43;;;307.80;2304.00;;;;;;5056288;28;20025;-83
2023/04/15 02:18:04;;;;;;;7.60;3.15;;;307.70;2304.00;;;;;;5038095;28;20025;-83
2023/04/15 02:20:30;;;;;;;7.47;3.42;;;307.50;2304.00;;;;;;5038212;28;20082;-84
2023/04/15 02:22:56;;;;;;;6.10;2.92;;;307.60;2304.00;;;;;;5038281;28;20025;-83
2023/04/15 02:25:22;;;;;;;3.75;1.98;;;307.70;2304.00;;;;;;5038034;28;20068;-83
2023/04/15 02:27:48;;;;;;;5.80;2.88;;;307.60;2304.00;;;;;;5038241;28;20021;-84
2023/04/15 02:30:14;;;;;;;7.05;2.80;;;307.40;2304.00;;;;;;5038312;28;20112;-84
2023/04/15 02:32:42;;;;;;;8.02;3.22;;;307.50;2304.00;;;;;;5037839;28;20460;-83
2023/04/15 02:35:08;;;;;;;5.00;2.78;;;307.30;2304.00;;;;;;5037903;28;20064;-85
2023/04/15 02:37:42;;;;;;;16.38;5.22;;;307.40;2304.00;;;;;;5037656;28;20045;-82
2023/04/15 02:40:10;;;;;;;26.52;8.88;;;307.30;2304.00;;;;;;5037457;28;20052;-85
2023/04/15 02:42:37;;;;;;;18.90;6.40;;;307.30;2304.00;;;;;;5038097;28;20028;-82
2023/04/15 02:45:04;;;;;;;13.45;5.30;;;307.30;2304.00;;;;;;5055485;28;20124;-84
2023/04/15 02:47:30;;;;;;;16.40;5.47;;;307.30;2304.00;;;;;;5056100;28;20457;-83
2023/04/15 02:49:57;;;;;;;14.32;5.25;;;307.30;2304.00;;;;;;5036555;28;20028;-82
2023/04/15 02:52:23;;;;;;;13.40;4.85;;;307.40;2304.00;;;;;;5036818;28;20079;-83
2023/04/15 02:54:49;;;;;;;15.13;5.45;;;307.40;2304.00;;;;;;5036527;28;20033;-85
2023/04/15 02:57:15;;;;;;;9.13;4.45;;;307.50;2304.00;;;;;;5037571;28;20033;-84
2023/04/15 02:59:41;;;;;;;7.65;3.45;;;307.50;2304.00;;;;;;5037356;28;20033;-83
2023/04/15 03:02:07;;;;;;;8.85;3.42;;;307.60;2304.00;;;;;;5037522;28;20021;-83
2023/04/15 03:04:33;;;;;;;5.50;2.38;;;307.60;2304.00;;;;;;5037581;28;20033;-83
2023/04/15 03:07:01;;;;;;;5.78;2.28;;;307.40;2304.00;;;;;;5037244;28;20526;-83
2023/04/15 03:09:26;;;;;;;5.03;2.42;;;307.50;2304.00;;;;;;5037449;28;20036;-82
2023/04/15 03:11:53;;;;;;;3.90;1.80;;;307.50;2304.00;;;;;;5037355;28;20025;-83
2023/04/15 03:14:19;;;;;;;4.20;1.80;;;307.30;2304.00;;;;;;5036966;28;20491;-84
2023/04/15 03:16:45;;;;;;;4.25;2.10;;;282.50;2278.40;;;;;;5037677;28;20119;-82
2023/04/15 03:19:11;;;;;;;6.18;2.60;;;307.30;2304.00;;;;;;5037186;28;20122;-84
2023/04/15 03:21:36;;;;;;;12.25;4.90;;;307.50;2304.00;;;;;;5037085;28;20112;-83
2023/04/15 03:24:02;;;;;;;11.45;4.88;;;307.40;2304.00;;;;;;5037160;28;20029;-84
2023/04/15 03:26:29;;;;;;;6.25;3.30;;;307.40;2304.00;;;;;;5054834;28;20032;-80
2023/04/15 03:28:56;;;;;;;6.38;2.67;;;282.40;2278.40;;;;;;5036911;28;20029;-81
2023/04/15 03:31:22;;;;;;;6.25;2.38;;;282.20;2278.40;;;;;;5054886;28;20108;-82
2023/04/15 03:33:48;;;;;;;5.88;2.83;;;282.30;2278.40;;;;;;5036784;28;20124;-81
2023/04/15 03:36:15;;;;;;;5.95;2.55;;;282.30;2278.40;;;;;;5036941;28;20036;-81
2023/04/15 03:38:41;;;;;;;5.63;2.78;;;282.20;2278.40;;;;;;5036718;28;20382;-86
2023/04/15 03:41:08;;;;;;;5.65;2.50;;;282.30;2278.40;;;;;;5036624;28;20358;-84
2023/04/15 03:43:34;;;;;;;6.70;3.22;;;282.20;2278.40;;;;;;5054600;28;20060;-86
2023/04/15 03:46:00;;;;;;;17.17;9.85;;;282.20;2278.40;;;;;;5054890;28;20033;-84
2023/04/15 03:48:26;;;;;;;20.23;11.98;;;282.30;2278.40;;;;;;5037909;28;20029;-83
2023/04/15 03:50:52;;;;;;;19.90;10.50;;;282.00;2278.40;;;;;;5040331;28;20033;-82
2023/04/15 03:53:18;;;;;;;11.73;6.60;;;282.10;2278.40;;;;;;5036927;28;20040;-84
2023/04/15 03:55:43;;;;;;;7.78;4.85;;;282.00;2278.40;;;;;;5054126;28;20457;-85
2023/04/15 03:58:11;;;;;;;10.23;6.03;;;282.20;2278.40;;;;;;5036605;28;20032;-81
2023/04/15 04:00:38;;;;;;;7.80;4.90;;;282.20;2278.40;;;;;;5036365;28;20025;-84
2023/04/15 04:03:04;;;;;;;7.88;4.88;;;282.20;2278.40;;;;;;5036363;28;20091;-85
2023/04/15 04:05:30;;;;;;;5.97;3.50;;;282.20;2278.40;;;;;;5035958;28;20472;-83
2023/04/15 04:07:55;;;;;;;6.63;3.05;;;282.40;2278.40;;;;;;5036538;28;20027;-83
2023/04/15 04:10:21;;;;;;;9.18;4.35;;;282.30;2278.40;;;;;;5036161;28;20029;-82
2023/04/15 04:12:47;;;;;;;13.43;6.57;;;282.00;2278.40;;;;;;5036407;28;20043;-85
2023/04/15 04:15:13;;;;;;;12.38;7.05;;;282.10;2278.40;;;;;;5036219;28;20033;-87
2023/04/15 04:17:38;;;;;;;13.65;6.90;;;282.20;2278.40;;;;;;5036035;28;20032;-85
2023/04/15 04:20:05;;;;;;;10.93;5.20;;;282.20;2278.40;;;;;;5036175;28;20461;-84
2023/04/15 04:22:31;;;;;;;10.38;5.35;;;282.20;2278.40;;;;;;5036206;28;20111;-83
2023/04/15 04:24:58;;;;;;;8.82;4.75;;;282.20;2278.40;;;;;;5035869;28;20171;-87
2023/04/15 04:27:25;;;;;;;8.75;4.65;;;282.20;2278.40;;;;;;5053636;28;20473;-85
2023/04/15 04:29:50;;;;;;;7.13;4.20;;;282.30;2278.40;;;;;;5035368;28;20033;-82
2023/04/15 04:32:16;;;;;;;7.57;4.32;;;282.40;2278.40;;;;;;5035596;28;20033;-83
2023/04/15 04:34:42;;;;;;;9.32;4.85;;;282.50;2278.40;;;;;;5035920;28;20115;-84
2023/04/15 04:37:08;;;;;;;9.27;5.18;;;282.50;2278.40;;;;;;5053343;28;20840;-81
2023/04/15 04:39:33;;;;;;;9.95;4.40;;;282.50;2278.40;;;;;;5035899;28;20021;-80
2023/04/15 04:42:00;;;;;;;9.10;5.00;;;282.50;2278.40;;;;;;5035973;28;20032;-82
2023/04/15 04:44:26;;;;;;;10.07;3.67;;;282.30;2278.40;;;;;;5035686;28;20362;-82
2023/04/15 04:46:52;;;;;;;7.53;4.50;;;282.40;2278.40;;;;;;5035846;28;20096;-81
2023/04/15 04:49:17;;;;;;;8.60;4.43;;;282.00;2278.40;;;;;;5035094;28;20087;-82
2023/04/15 04:51:43;;;;;;;6.75;3.90;;;282.00;2278.40;;;;;;5034712;28;20059;-86
2023/04/15 04:54:09;;;;;;;5.97;3.67;;;;;;;;;;5034850;28;20044;-87
2023/04/15 04:56:37;;;;;;;8.48;4.20;;;281.60;2278.40;;;;;;5053586;28;20032;-85
2023/04/15 04:59:03;;;;;;;10.05;4.63;;;281.70;2278.40;;;;;;5035710;28;20025;-85
2023/04/15 05:01:29;;;;;;;6.30;3.60;;;281.80;2278.40;;;;;;5035749;28;20033;-86
2023/04/15 05:03:55;;;;;;;9.50;4.20;;;281.70;2278.40;;;;;;5035683;28;20494;-85
2023/04/15 05:06:20;;;;;;;11.65;5.00;;;282.00;2278.40;;;;;;5035654;28;20365;-86
2023/04/15 05:08:47;;;;;;;32.85;15.63;;;281.60;2278.40;;;;;;5035607;28;20021;-83
2023/04/15 05:11:12;;;;;;;40.88;16.48;;;281.70;2278.40;;;;;;5035697;28;20029;-87
2023/04/15 05:13:38;;;;;;;28.48;13.95;;;281.80;2278.40;;;;;;5035456;28;20044;-86
2023/04/15 05:16:05;;;;;;;27.08;12.90;;;281.90;2278.40;;;;;;5037519;28;20021;-84
2023/04/15 05:18:30;;;;;;;18.05;10.75;;;281.90;2278.40;;;;;;5039619;28;20025;-84
2023/04/15 05:20:57;;;;;;;16.98;11.02;;;282.10;2278.40;;;;;;5039061;28;20028;-84
2023/04/15 05:23:23;;;;;;;19.67;12.82;;;282.20;2278.40;;;;;;5039460;28;20029;-84
2023/04/15 05:25:48;;;;;;;19.73;13.27;;;282.20;2278.40;;;;;;5039147;28;20029;-85
2023/04/15 05:28:14;;;;;;;15.00;8.88;;;282.30;2278.40;;;;;;5039406;28;20043;-85
2023/04/15 05:30:40;;;;;;;12.88;6.68;;;282.10;2278.40;;;;;;5039501;28;20029;-84
2023/04/15 05:33:06;;;;;;;13.20;8.25;;;282.20;2278.40;;;;;;5056969;28;20461;-83
2023/04/15 05:35:31;;;;;;;13.10;8.48;;;282.20;2278.40;;;;;;5039197;28;20120;-82
2023/04/15 05:37:57;;;;;;;11.65;8.23;;;282.30;2278.40;;;;;;5038995;28;20132;-80
2023/04/15 05:40:23;;;;;;;16.27;10.90;;;282.50;2278.40;;;;;;5038789;28;20025;-81
2023/04/15 05:42:49;;;;;;;18.85;13.25;;;282.20;2278.40;;;;;;5056708;28;20017;-80
2023/04/15 05:45:15;;;;;;;16.25;11.75;;;282.40;2278.40;;;;;;5057062;28;20505;-81
2023/04/15 05:47:40;;;;;;;15.25;10.02;;;282.40;2278.40;;;;;;5056298;28;20033;-82
2023/04/15 05:50:07;;;;;;;14.73;9.05;;;282.40;2278.40;;;;;;5038900;28;20029;-83
2023/04/15 05:52:32;;;;;;;12.27;7.90;;;307.20;2304.00;;;;;;5056615;28;20021;-83
2023/04/15 05:54:58;;;;;;;14.25;8.43;;;282.40;2278.40;;;;;;5038408;28;20037;-84
2023/04/15 05:57:24;;;;;;;16.23;10.23;;;282.50;2278.40;;;;;;5056794;28;20048;-83
2023/04/15 05:59:53;;;;;;;21.83;12.73;;;307.20;2304.00;;;;;;5038904;28;20123;-83
2023/04/15 06:02:18;;;;;;;21.42;14.55;;;307.20;2304.00;;;;;;5038496;28;20021;-81
2023/04/15 06:04:44;;;;;;;25.08;16.67;;;307.20;2304.00;;;;;;5038508;28;20119;-82
2023/04/15 06:07:10;;;;;;;28.98;19.60;;;282.50;2278.40;;;;;;5038487;28;20083;-80
2023/04/15 06:09:36;;;;;;;33.92;23.08;;;307.20;2304.00;;;;;;5038376;28;20025;-83
2023/04/15 06:12:02;;;;;;;25.48;19.25;;;307.30;2304.00;;;;;;5038657;28;20021;-83
2023/04/15 06:14:27;;;;;;;23.55;14.73;;;307.30;2304.00;;;;;;5037624;28;20037;-84
2023/04/15 06:16:53;;;;;;;16.67;11.38;;;307.30;2304.00;;;;;;5037500;28;20490;-84
2023/04/15 06:19:19;;;;;;;13.80;10.13;;;307.40;2304.00;;;;;;5038077;28;20029;-82
2023/04/15 06:21:45;;;;;;;17.60;10.38;;;307.40;2304.00;;;;;;5038017;28;20124;-80
2023/04/15 06:24:11;;;;;;;16.15;11.13;;;307.50;2304.00;;;;;;5038112;28;20025;-81
2023/04/15 06:26:37;;;;;;;19.10;11.68;;;307.40;2304.00;;;;;;5038319;28;20025;-82
2023/04/15 06:29:03;;;;;;;17.13;11.48;;;307.40;2304.00;;;;;;5038631;28;20056;-84
2023/04/15 06:31:29;;;;;;;13.57;10.07;;;307.30;2304.00;;;;;;5037367;28;20447;-83
2023/04/15 06:33:55;;;;;;;14.23;9.05;;;307.40;2304.00;;;;;;5037789;28;20370;-81
2023/04/15 06:36:21;;;;;;;16.27;10.48;;;307.40;2304.00;;;;;;5034310;28;20056;-84
2023/04/15 06:38:46;;;;;;;13.65;9.88;;;307.40;2304.00;;;;;;5034511;28;20128;-84
2023/04/15 06:41:12;;;;;;;14.55;9.20;;;307.50;2304.00;;;;;;5034575;28;20049;-82
2023/04/15 06:43:39;;;;;;;15.88;10.15;;;307.70;2304.00;;;;;;5035574;28;20033;-81
2023/04/15 06:46:05;;;;;;;14.20;9.38;;;307.90;2304.00;;;;;;5035501;28;20025;-84
2023/04/15 06:48:31;;;;;;;11.68;7.32;;;308.00;2304.00;;;;;;5034567;28;20080;-83
2023/04/15 06:50:57;;;;;;;9.63;5.78;;;308.10;2304.00;;;;;;5035535;28;20033;-82
2023/04/15 06:53:26;;;;;;;9.70;5.43;;;308.10;2304.00;;;;;;5034376;28;20038;-85
2023/04/15 06:55:52;;;;;;;9.43;4.28;;;332.90;2329.60;;;;;;5035601;28;20056;-81
2023/04/15 06:58:18;;;;;;;11.48;5.60;;;333.00;2329.60;;;;;;5039292;28;20060;-83
2023/04/15 07:00:44;;;;;;;11.75;4.00;;;333.20;2329.60;;;;;;5037482;28;20032;-83
2023/04/15 07:03:12;;;;;;;15.25;5.18;;;333.30;2329.60;;;;;;5036550;28;20596;-79
2023/04/15 07:05:38;;;;;;;20.02;11.40;;;333.50;2329.60;;;;;;5037253;28;20029;-79
2023/04/15 07:08:05;;;;;;;14.23;7.90;;;333.60;2329.60;;;;;;5037537;28;20350;-81
2023/04/15 07:10:32;;;;;;;10.38;4.90;;;333.70;2329.60;;;;;;5039023;28;20028;-81
2023/04/15 07:12:58;;;;;;;11.30;3.55;;;333.70;2329.60;;;;;;5054696;28;20453;-82
2023/04/15 07:15:23;;;;;;;7.60;3.30;;;358.40;2329.60;;;;;;5055096;28;20071;-80
2023/04/15 07:17:50;;;;;;;7.55;2.75;;;358.50;2329.60;;;;;;5036658;28;20025;-81
2023/04/15 07:20:15;;;;;;;9.77;3.22;;;358.60;2329.60;;;;;;5037072;28;20070;-82
2023/04/15 07:22:41;;;;;;;8.10;3.75;;;358.50;2329.60;;;;;;5037201;28;20022;-82
2023/04/15 07:25:07;;;;;;;7.43;3.80;;;358.60;2329.60;;;;;;5036880;28;20427;-83
2023/04/15 07:27:33;;;;;;;7.55;2.72;;;358.70;2329.60;;;;;;5037295;28;20021;-83
2023/04/15 07:29:59;;;;;;;6.35;3.50;;;358.80;2329.60;;;;;;5037080;28;20029;-82
2023/04/15 07:32:25;;;;;;;6.18;2.78;;;358.80;2329.60;;;;;;5036978;28;20078;-83
2023/04/15 07:34:51;;;;;;;6.55;3.20;;;358.90;2329.60;;;;;;5054707;28;20112;-80
2023/04/15 07:37:17;;;;;;;7.35;5.03;;;359.00;2329.60;;;;;;5036571;28;20049;-82
2023/04/15 07:39:43;;;;;;;7.80;4.40;;;359.20;2329.60;;;;;;5035597;28;20377;-81
2023/04/15 07:42:09;;;;;;;7.70;3.50;;;359.30;2329.60;;;;;;5036668;28;20029;-80
2023/04/15 07:44:35;;;;;;;6.35;3.40;;;359.30;2329.60;;;;;;5054862;28;20029;-80
2023/04/15 07:47:03;;;;;;;6.10;3.20;;;359.20;2329.60;;;;;;5036451;28;20029;-82
2023/04/15 07:49:28;;;;;;;10.25;3.55;;;359.20;2329.60;;;;;;5032342;28;20029;-81
2023/04/15 07:51:56;;;;;;;6.18;3.30;;;359.20;2329.60;;;;;;5053966;28;20483;-80
2023/04/15 07:54:22;;;;;;;6.53;2.95;;;359.00;2329.60;;;;;;5052988;28;20091;-78
2023/04/15 07:56:47;;;;;;;9.13;3.67;;;358.90;2329.60;;;;;;5036027;28;20064;-82
2023/04/15 07:59:16;;;;;;;10.75;4.70;;;359.00;2329.60;;;;;;5036544;28;20040;-81
2023/04/15 08:01:43;;;;;;;7.45;2.45;;;359.00;2329.60;;;;;;5036187;28;20047;-80
2023/04/15 08:04:09;;;;;;;6.88;3.45;;;359.20;2252.80;;;;;;5054317;28;20033;-82
2023/04/15 08:06:35;;;;;;;6.90;3.83;;;358.80;2252.80;;;;;;5036475;28;20090;-81
2023/04/15 08:09:01;;;;;;;21.70;8.68;;;359.10;2176.00;;;;;;5036134;28;20025;-81
2023/04/15 08:11:27;;;;;;;13.55;6.10;;;359.20;2278.40;;;;;;5036320;28;20025;-82
2023/04/15 08:13:53;;;;;;;8.73;3.70;;;359.10;2329.60;;;;;;5035930;28;20108;-80
2023/04/15 08:16:24;;;;;;;7.60;2.92;;;358.90;2329.60;;;;;;5036167;28;20376;-81
2023/04/15 08:18:51;;;;;;;10.23;5.60;;;359.10;2329.60;;;;;;5036144;28;20032;-83
2023/04/15 08:21:18;;;;;;;7.13;3.35;;;359.10;2329.60;;;;;;5035826;28;20029;-81
2023/04/15 08:23:45;;;;;;;10.05;4.85;;;359.10;2278.40;;;;;;5035871;28;20036;-82
2023/04/15 08:26:11;;;;;;;16.15;7.82;;;384.10;2227.20;;;;;;5035866;28;20068;-82
2023/04/15 08:28:39;;;;;;;10.15;4.78;;;384.60;2252.80;;;;;;5035471;28;20036;-82
2023/04/15 08:31:04;;;;;;;5.95;3.10;;;384.80;2201.60;;;;;;5035943;28;20121;-80
2023/04/15 08:33:30;;;;;;;7.47;3.08;;;384.80;2176.00;;;;;;5035809;28;20128;-82
2023/04/15 08:35:56;;;;;;;6.95;2.55;;;384.90;2176.00;;;;;;5035464;28;20506;-84
2023/04/15 08:38:22;;;;;;;8.43;3.55;;;384.90;2176.00;;;;;;5053293;28;20045;-84
2023/04/15 08:40:48;;;;;;;8.93;3.78;;;384.90;2150.40;;;;;;5035715;28;20031;-83
2023/04/15 08:43:27;;;;;;;8.30;4.07;;;409.80;2150.40;;;;;;5053586;28;20368;-81
2023/04/15 08:45:54;;;;;;;6.25;2.53;;;409.80;2176.00;;;;;;5053900;28;20464;-80
2023/04/15 08:48:21;;;;;;;5.72;2.58;;;409.90;2099.20;;;;;;5035557;28;20025;-80
2023/04/15 08:50:47;;;;;;;9.38;2.42;;;410.00;2048.00;;;;;;5036979;28;20461;-80
2023/04/15 08:53:14;;;;;;;8.38;3.50;;;410.20;2022.40;;;;;;5039806;28;20111;-83
2023/04/15 08:55:45;;;;;;;13.93;7.75;;;410.20;2022.40;;;;;;5039770;28;20299;-81
2023/04/15 08:58:12;;;;;;;7.80;2.67;;;410.20;1996.80;;;;;;5039822;28;20029;-83
2023/04/15 09:00:39;;;;;;;18.30;9.15;;;410.10;1996.80;;;;;;5039801;28;20025;-83
2023/04/15 09:03:06;;;;;;;11.18;4.72;;;410.00;1971.20;;;;;;5039354;28;20029;-82
2023/04/15 09:05:33;;;;;;;10.45;5.13;;;410.20;1971.20;;;;;;5039496;28;20024;-82
2023/04/15 09:07:59;;;;;;;8.70;4.10;;;410.30;1945.60;;;;;;5039709;28;20475;-83
2023/04/15 09:10:26;;;;;;;8.75;5.68;;;435.20;1920.00;;;;;;5057211;28;20166;-83
2023/04/15 09:12:52;;;;;;;7.22;3.05;;;410.40;1920.00;;;;;;5057610;28;20029;-81
2023/04/15 09:15:18;;;;;;;11.68;2.47;;;410.50;1920.00;;;;;;5039338;28;20029;-82
2023/04/15 09:17:45;;;;;;;7.65;2.83;;;410.50;1920.00;;;;;;5038920;28;20025;-83
2023/04/15 09:20:17;;;;;;;10.38;3.50;;;410.50;1920.00;;;;;;5039327;28;20465;-82
2023/04/15 09:22:45;;;;;;;9.32;3.60;;;410.50;1920.00;;;;;;5039482;28;20119;-87
2023/04/15 09:25:14;;;;;;;11.40;2.80;;;410.50;1894.40;;;;;;5039416;28;20124;-85
2023/04/15 09:27:58;;;;;;;8.82;3.28;;;410.40;1894.40;;;;;;5036836;28;20372;-87
2023/04/15 09:30:24;;;;;;;9.50;4.32;;;410.30;1894.40;;;;;;5055686;28;20100;-86
2023/04/15 09:32:58;;;;;;;10.02;4.75;;;410.20;1894.40;;;;;;5039724;28;20029;-85
2023/04/15 09:35:26;;;;;;;6.53;3.15;;;410.30;1894.40;;;;;;5030505;28;20057;-86
2023/04/15 09:38:00;;;;;;;7.72;3.88;;;410.30;1894.40;;;;;;5032058;28;20079;-85
2023/04/15 09:40:35;;;;;;;15.77;6.47;;;410.20;1920.00;;;;;;5023104;28;20404;-85
2023/04/15 09:43:02;;;;;;;14.20;5.78;;;410.30;1920.00;;;;;;5039526;28;20025;-87
2023/04/15 09:45:28;;;;;;;8.57;4.70;;;410.30;1920.00;;;;;;5029702;28;20378;-84
2023/04/15 09:47:55;;;;;;;10.25;5.20;;;410.30;1894.40;;;;;;5032255;28;20032;-84
2023/04/15 09:50:21;;;;;;;12.18;6.35;;;410.30;1894.40;;;;;;5022200;28;20061;-83
2023/04/15 09:52:47;;;;;;;8.77;4.07;;;410.30;1894.40;;;;;;5038711;28;20063;-83
2023/04/15 09:55:14;;;;;;;7.10;2.83;;;410.30;1894.40;;;;;;5030715;28;20038;-81
2023/04/15 09:57:41;;;;;;;8.77;4.28;;;410.30;1894.40;;;;;;5030127;28;20440;-84
2023/04/15 10:00:10;;;;;;;8.80;4.78;;;410.30;1868.80;;;;;;5023321;28;20044;-85
2023/04/15 10:02:37;;;;;;;10.38;4.53;;;410.30;1894.40;;;;;;5017941;28;20085;-84
2023/04/15 10:05:03;;;;;;;7.68;4.50;;;410.40;1894.40;;;;;;5019242;28;20036;-84
2023/04/15 10:07:29;;;;;;;7.45;4.72;;;410.50;1868.80;;;;;;5036262;28;20425;-83
2023/04/15 10:09:55;;;;;;;11.32;7.15;;;410.50;1868.80;;;;;;5019013;28;20481;-82
2023/04/15 10:12:22;;;;;;;9.45;4.28;;;435.20;1868.80;;;;;;5019089;28;20067;-84
2023/04/15 10:14:57;;;;;;;5.15;2.72;;;435.40;1868.80;;;;;;5018359;28;20049;-84
2023/04/15 10:17:27;;;;;;;7.18;3.22;;;435.80;1817.60;;;;;;5019100;28;20021;-86
2023/04/15 10:19:54;;;;;;;4.47;2.60;;;435.80;1817.60;;;;;;5019113;28;20060;-84
2023/04/15 10:22:25;;;;;;;5.78;2.55;;;460.90;1817.60;;;;;;5018705;28;20025;-83
2023/04/15 10:24:51;;;;;;;7.18;2.40;;;461.10;1817.60;;;;;;5018501;28;20033;-84
2023/04/15 10:27:19;;;;;;;4.70;1.60;;;461.50;1766.40;;;;;;5018515;28;20025;-86
2023/04/15 10:29:45;;;;;;;4.90;2.13;;;486.60;1740.80;;;;;;5018571;28;20032;-83
2023/04/15 10:32:12;;;;;;;6.20;2.33;;;487.00;1715.20;;;;;;5018370;28;20029;-83
2023/04/15 10:34:39;;;;;;;4.63;2.20;;;487.10;1689.60;;;;;;5018403;28;20038;-83
2023/04/15 10:37:09;;;;;;;7.35;3.03;;;512.00;1689.60;;;;;;5035932;28;20412;-82
2023/04/15 10:39:36;;;;;;;8.07;2.92;;;487.10;1689.60;;;;;;5019564;28;20120;-84
2023/04/15 10:42:10;;;;;;;5.95;2.28;;;487.20;1689.60;;;;;;5029054;28;20071;-82
2023/04/15 10:44:38;;;;;;;5.32;2.30;;;487.30;1664.00;;;;;;5021301;28;20553;-83
2023/04/15 10:47:24;;;;;;;4.00;1.95;;;512.00;1689.60;;;;;;5021650;28;20028;-82
2023/04/15 10:49:58;;;;;;;5.00;2.50;;;486.90;1689.60;;;;;;5053132;28;20040;-82
2023/04/15 10:52:26;;;;;;;4.22;2.10;;;486.60;1715.20;;;;;;5049084;28;20468;-83
2023/04/15 10:55:19;;;;;;;4.72;2.28;;;486.40;1715.20;;;;;;5038886;28;20041;-83
2023/04/15 10:57:45;;;;;;;12.18;6.53;;;461.60;1740.80;;;;;;5029106;28;20132;-83
2023/04/15 11:00:15;;;;;;;7.32;3.25;;;461.60;1740.80;;;;;;5037415;28;20480;-85
2023/04/15 11:02:55;;;;;;;7.32;3.50;;;461.60;1715.20;;;;;;5021121;28;20036;-84
2023/04/15 11:05:42;;;;;;;8.63;2.97;;;461.60;1740.80;;;;;;5037385;28;20499;-83
2023/04/15 11:08:12;;;;;;;11.13;6.68;;;461.60;1740.80;;;;;;5054824;28;20025;-84
2023/04/15 11:10:37;;;;;;;9.88;5.03;;;461.70;1766.40;;;;;;5055508;28;20029;-85
2023/04/15 11:13:10;;;;;;;14.20;7.63;;;461.60;1792.00;;;;;;5017363;28;20095;-85
2023/04/15 11:15:39;;;;;;;7.20;4.00;;;461.60;1817.60;;;;;;5025470;28;20037;-86
2023/04/15 11:18:25;;;;;;;6.30;2.85;;;461.30;1843.20;;;;;;5048965;28;20025;-84
2023/04/15 11:20:56;;;;;;;7.72;3.83;;;460.90;1894.40;;;;;;5051720;28;20468;-85
2023/04/15 11:23:29;;;;;;;15.85;8.63;;;460.90;1894.40;;;;;;5032326;28;20033;-84
2023/04/15 11:25:58;;;;;;;12.52;7.57;;;460.90;1868.80;;;;;;5026165;28;20079;-86
2023/04/15 11:28:30;;;;;;;9.02;5.47;;;460.90;1843.20;;;;;;5032792;28;20120;-83
2023/04/15 11:30:56;;;;;;;8.77;3.38;;;461.10;1843.20;;;;;;5037101;28;20473;-84
2023/04/15 11:33:23;;;;;;;5.72;3.10;;;486.40;1766.40;;;;;;5041032;28;20025;-84
2023/04/15 11:35:49;;;;;;;6.72;2.70;;;486.90;1740.80;;;;;;5037151;28;20116;-86
2023/04/15 11:38:15;;;;;;;6.10;3.35;;;487.20;1689.60;;;;;;5023176;28;20045;-84
2023/04/15 11:40:42;;;;;;;5.15;3.13;;;512.60;1638.40;;;;;;5033118;28;20033;-85
2023/04/15 11:43:19;;;;;;;10.05;3.15;;;512.60;1638.40;;;;;;5017099;28;20026;-81
2023/04/15 11:45:57;;;;;;;6.97;2.78;;;512.90;1612.80;;;;;;5026095;28;20056;-80
2023/04/15 11:48:27;;;;;;;4.50;1.60;;;512.70;1638.40;;;;;;5036437;28;20116;-82
2023/04/15 11:50:54;;;;;;;5.20;1.85;;;;;;;;;;5032233;28;20033;-83
2023/04/15 11:53:20;;;;;;;6.15;2.42;;;;;;;;;;5054274;28;20644;-84
2023/04/15 11:55:50;;;;;;;5.28;2.17;;;;;;;;;;5046333;28;20037;-86
2023/04/15 11:58:21;;;;;;;8.30;2.58;;;;;;;;;;5059664;28;20017;-81
2023/04/15 12:00:56;;;;;;;4.50;2.05;;;537.60;1689.60;;;;;;5035156;28;20084;-83
2023/04/15 12:03:30;;;;;;;6.93;2.42;;;537.70;1664.00;;;;;;5035286;28;20025;-85
2023/04/15 12:06:23;;;;;;;5.38;1.58;;;512.50;1689.60;;;;;;5035547;28;20381;-86
2023/04/15 12:09:05;;;;;;;5.50;2.88;;;512.00;1715.20;;;;;;5019693;28;20069;-82
2023/04/15 12:11:44;;;;;;;6.05;2.05;;;512.80;1689.60;;;;;;5028608;28;20150;-80
2023/04/15 12:14:16;;;;;;;6.95;1.85;;;512.90;1689.60;;;;;;5016183;28;20077;-85
2023/04/15 12:16:45;;;;;;;4.22;2.00;;;512.50;1689.60;;;;;;5016895;28;20162;-82